sensor_id;sensor_type;location;lat;lon;timestamp;P1;durP1;ratioP1;P2;durP2;ratioP2
48975;SDS011;34791;52.752;8.346;2023-04-12T00:00:32;6.20;;;1.70;;
48975;SDS011;34791;52.752;8.346;2023-04-12T00:02:57;7.23;;;2.17;;
48975;SDS011;34791;52.752;8.346;2023-04-12T00:05:27;6.23;;;1.93;;
48975;SDS011;34791;52.752;8.346;2023-04-12T00:07:52;8.13;;;2.17;;
48975;SDS011;34791;52.752;8.346;2023-04-12T00:10:19;7.73;;;2.13;;
48975;SDS011;34791;52.752;8.346;2023-04-12T00:12:45;9.03;;;2.10;;
48975;SDS011;34791;52.752;8.346;2023-04-12T00:15:11;7.33;;;2.50;;
48975;SDS011;34791;52.752;8.346;2023-04-12T00:17:37;6.10;;;1.97;;
48975;SDS011;34791;52.752;8.346;2023-04-12T00:20:03;4.87;;;1.87;;
48975;SDS011;34791;52.752;8.346;2023-04-12T00:22:30;6.90;;;2.30;;
48975;SDS011;34791;52.752;8.346;2023-04-12T00:24:56;8.20;;;2.13;;
48975;SDS011;34791;52.752;8.346;2023-04-12T00:27:22;6.03;;;2.07;;
48975;SDS011;34791;52.752;8.346;2023-04-12T00:29:47;7.47;;;2.10;;
48975;SDS011;34791;52.752;8.346;2023-04-12T00:32:13;5.63;;;1.83;;
48975;SDS011;34791;52.752;8.346;2023-04-12T00:34:38;5.13;;;2.00;;
48975;SDS011;34791;52.752;8.346;2023-04-12T00:37:04;6.37;;;1.90;;
48975;SDS011;34791;52.752;8.346;2023-04-12T00:39:29;4.87;;;1.97;;
48975;SDS011;34791;52.752;8.346;2023-04-12T00:41:55;6.33;;;2.10;;
48975;SDS011;34791;52.752;8.346;2023-04-12T00:44:25;5.03;;;1.80;;
48975;SDS011;34791;52.752;8.346;2023-04-12T00:46:51;4.83;;;1.47;;
48975;SDS011;34791;52.752;8.346;2023-04-12T00:49:16;6.60;;;1.80;;
48975;SDS011;34791;52.752;8.346;2023-04-12T00:51:42;6.50;;;1.90;;
48975;SDS011;34791;52.752;8.346;2023-04-12T00:54:08;10.97;;;2.67;;
48975;SDS011;34791;52.752;8.346;2023-04-12T00:56:33;5.77;;;1.90;;
48975;SDS011;34791;52.752;8.346;2023-04-12T00:58:59;7.57;;;2.93;;
48975;SDS011;34791;52.752;8.346;2023-04-12T01:04:12;7.47;;;2.13;;
48975;SDS011;34791;52.752;8.346;2023-04-12T01:06:58;4.67;;;1.83;;
48975;SDS011;34791;52.752;8.346;2023-04-12T01:09:42;5.70;;;1.87;;
48975;SDS011;34791;52.752;8.346;2023-04-12T01:15:28;8.93;;;2.67;;
48975;SDS011;34791;52.752;8.346;2023-04-12T01:18:30;6.10;;;2.20;;
48975;SDS011;34791;52.752;8.346;2023-04-12T01:20:53;7.80;;;2.40;;
48975;SDS011;34791;52.752;8.346;2023-04-12T01:23:47;7.27;;;2.17;;
48975;SDS011;34791;52.752;8.346;2023-04-12T01:29:13;10.17;;;2.50;;
48975;SDS011;34791;52.752;8.346;2023-04-12T01:31:41;8.67;;;2.33;;
48975;SDS011;34791;52.752;8.346;2023-04-12T01:34:14;6.83;;;2.63;;
48975;SDS011;34791;52.752;8.346;2023-04-12T01:36:41;5.83;;;2.50;;
48975;SDS011;34791;52.752;8.346;2023-04-12T01:39:10;6.57;;;2.47;;
48975;SDS011;34791;52.752;8.346;2023-04-12T01:41:39;5.10;;;1.60;;
48975;SDS011;34791;52.752;8.346;2023-04-12T01:44:15;5.80;;;2.00;;
48975;SDS011;34791;52.752;8.346;2023-04-12T01:46:42;7.03;;;2.40;;
48975;SDS011;34791;52.752;8.346;2023-04-12T01:49:08;4.33;;;2.10;;
48975;SDS011;34791;52.752;8.346;2023-04-12T01:52:00;7.60;;;2.40;;
48975;SDS011;34791;52.752;8.346;2023-04-12T01:54:29;6.80;;;2.10;;
48975;SDS011;34791;52.752;8.346;2023-04-12T01:56:58;9.88;;;2.90;;
48975;SDS011;34791;52.752;8.346;2023-04-12T01:59:26;12.30;;;2.60;;
48975;SDS011;34791;52.752;8.346;2023-04-12T02:01:55;10.73;;;2.50;;
48975;SDS011;34791;52.752;8.346;2023-04-12T02:04:22;8.90;;;2.47;;
48975;SDS011;34791;52.752;8.346;2023-04-12T02:06:50;6.10;;;1.70;;
48975;SDS011;34791;52.752;8.346;2023-04-12T02:09:16;4.90;;;1.80;;
48975;SDS011;34791;52.752;8.346;2023-04-12T02:11:45;10.10;;;2.63;;
48975;SDS011;34791;52.752;8.346;2023-04-12T02:14:12;7.28;;;2.40;;
48975;SDS011;34791;52.752;8.346;2023-04-12T02:16:38;5.33;;;2.07;;
48975;SDS011;34791;52.752;8.346;2023-04-12T02:19:06;10.90;;;2.63;;
48975;SDS011;34791;52.752;8.346;2023-04-12T02:21:42;8.40;;;2.47;;
48975;SDS011;34791;52.752;8.346;2023-04-12T02:24:09;7.70;;;2.13;;
48975;SDS011;34791;52.752;8.346;2023-04-12T02:26:35;10.97;;;2.43;;
48975;SDS011;34791;52.752;8.346;2023-04-12T02:29:02;11.47;;;2.97;;
48975;SDS011;34791;52.752;8.346;2023-04-12T02:31:28;7.47;;;2.40;;
48975;SDS011;34791;52.752;8.346;2023-04-12T02:33:56;7.43;;;2.33;;
48975;SDS011;34791;52.752;8.346;2023-04-12T02:36:22;7.80;;;2.40;;
48975;SDS011;34791;52.752;8.346;2023-04-12T02:38:48;6.00;;;2.37;;
48975;SDS011;34791;52.752;8.346;2023-04-12T02:41:17;5.73;;;2.13;;
48975;SDS011;34791;52.752;8.346;2023-04-12T02:43:43;7.43;;;2.23;;
48975;SDS011;34791;52.752;8.346;2023-04-12T02:46:10;11.17;;;2.37;;
48975;SDS011;34791;52.752;8.346;2023-04-12T02:48:38;5.83;;;2.03;;
48975;SDS011;34791;52.752;8.346;2023-04-12T02:51:03;9.33;;;2.47;;
48975;SDS011;34791;52.752;8.346;2023-04-12T02:53:29;7.23;;;2.13;;
48975;SDS011;34791;52.752;8.346;2023-04-12T02:55:55;9.20;;;2.33;;
48975;SDS011;34791;52.752;8.346;2023-04-12T02:58:21;8.00;;;2.17;;
48975;SDS011;34791;52.752;8.346;2023-04-12T03:00:48;7.63;;;2.57;;
48975;SDS011;34791;52.752;8.346;2023-04-12T03:03:14;5.20;;;2.20;;
48975;SDS011;34791;52.752;8.346;2023-04-12T03:05:41;7.23;;;2.13;;
48975;SDS011;34791;52.752;8.346;2023-04-12T03:08:11;7.50;;;2.30;;
48975;SDS011;34791;52.752;8.346;2023-04-12T03:10:37;9.27;;;2.53;;
48975;SDS011;34791;52.752;8.346;2023-04-12T03:13:03;6.77;;;2.43;;
48975;SDS011;34791;52.752;8.346;2023-04-12T03:15:30;7.03;;;2.50;;
48975;SDS011;34791;52.752;8.346;2023-04-12T03:17:56;5.83;;;2.13;;
48975;SDS011;34791;52.752;8.346;2023-04-12T03:20:21;7.33;;;2.27;;
48975;SDS011;34791;52.752;8.346;2023-04-12T03:22:49;11.23;;;2.43;;
48975;SDS011;34791;52.752;8.346;2023-04-12T03:25:15;7.53;;;3.07;;
48975;SDS011;34791;52.752;8.346;2023-04-12T03:27:42;9.87;;;2.57;;
48975;SDS011;34791;52.752;8.346;2023-04-12T03:30:08;9.03;;;2.40;;
48975;SDS011;34791;52.752;8.346;2023-04-12T03:32:35;5.20;;;2.10;;
48975;SDS011;34791;52.752;8.346;2023-04-12T03:35:01;6.40;;;2.20;;
48975;SDS011;34791;52.752;8.346;2023-04-12T03:37:27;7.57;;;2.03;;
48975;SDS011;34791;52.752;8.346;2023-04-12T03:39:53;5.83;;;2.40;;
48975;SDS011;34791;52.752;8.346;2023-04-12T03:42:18;5.33;;;2.10;;
48975;SDS011;34791;52.752;8.346;2023-04-12T03:44:44;8.27;;;2.37;;
48975;SDS011;34791;52.752;8.346;2023-04-12T03:47:09;9.67;;;2.77;;
48975;SDS011;34791;52.752;8.346;2023-04-12T03:49:36;7.73;;;2.00;;
48975;SDS011;34791;52.752;8.346;2023-04-12T03:52:03;5.93;;;2.47;;
48975;SDS011;34791;52.752;8.346;2023-04-12T03:54:29;8.87;;;2.20;;
48975;SDS011;34791;52.752;8.346;2023-04-12T03:56:55;11.00;;;2.77;;
48975;SDS011;34791;52.752;8.346;2023-04-12T03:59:20;7.40;;;2.33;;
48975;SDS011;34791;52.752;8.346;2023-04-12T04:01:46;6.43;;;1.93;;
48975;SDS011;34791;52.752;8.346;2023-04-12T04:04:12;6.70;;;2.00;;
48975;SDS011;34791;52.752;8.346;2023-04-12T04:06:38;11.57;;;2.40;;
48975;SDS011;34791;52.752;8.346;2023-04-12T04:09:03;11.07;;;2.17;;
48975;SDS011;34791;52.752;8.346;2023-04-12T04:11:29;7.97;;;1.97;;
48975;SDS011;34791;52.752;8.346;2023-04-12T04:13:55;6.87;;;2.10;;
48975;SDS011;34791;52.752;8.346;2023-04-12T04:16:21;6.27;;;1.73;;
48975;SDS011;34791;52.752;8.346;2023-04-12T04:18:47;6.10;;;1.83;;
48975;SDS011;34791;52.752;8.346;2023-04-12T04:21:12;7.60;;;2.13;;
48975;SDS011;34791;52.752;8.346;2023-04-12T04:23:38;5.77;;;1.97;;
48975;SDS011;34791;52.752;8.346;2023-04-12T04:26:07;6.03;;;1.90;;
48975;SDS011;34791;52.752;8.346;2023-04-12T04:31:03;6.93;;;1.87;;
48975;SDS011;34791;52.752;8.346;2023-04-12T04:33:33;4.87;;;1.73;;
48975;SDS011;34791;52.752;8.346;2023-04-12T04:35:59;6.53;;;2.37;;
48975;SDS011;34791;52.752;8.346;2023-04-12T04:38:25;10.03;;;1.93;;
48975;SDS011;34791;52.752;8.346;2023-04-12T04:40:51;4.67;;;1.90;;
48975;SDS011;34791;52.752;8.346;2023-04-12T04:43:20;11.17;;;1.90;;
48975;SDS011;34791;52.752;8.346;2023-04-12T04:45:46;6.90;;;2.47;;
48975;SDS011;34791;52.752;8.346;2023-04-12T04:48:14;5.37;;;1.83;;
48975;SDS011;34791;52.752;8.346;2023-04-12T04:50:40;8.50;;;2.43;;
48975;SDS011;34791;52.752;8.346;2023-04-12T04:53:06;8.03;;;2.30;;
48975;SDS011;34791;52.752;8.346;2023-04-12T04:55:31;9.10;;;2.13;;
48975;SDS011;34791;52.752;8.346;2023-04-12T04:57:57;9.27;;;2.43;;
48975;SDS011;34791;52.752;8.346;2023-04-12T05:00:23;5.33;;;1.90;;
48975;SDS011;34791;52.752;8.346;2023-04-12T05:02:50;8.67;;;2.30;;
48975;SDS011;34791;52.752;8.346;2023-04-12T05:05:16;8.13;;;2.17;;
48975;SDS011;34791;52.752;8.346;2023-04-12T05:07:41;12.67;;;2.53;;
48975;SDS011;34791;52.752;8.346;2023-04-12T05:10:08;9.40;;;2.60;;
48975;SDS011;34791;52.752;8.346;2023-04-12T05:12:35;6.03;;;1.87;;
48975;SDS011;34791;52.752;8.346;2023-04-12T05:15:01;6.13;;;2.30;;
48975;SDS011;34791;52.752;8.346;2023-04-12T05:17:27;7.27;;;1.90;;
48975;SDS011;34791;52.752;8.346;2023-04-12T05:19:53;4.97;;;1.60;;
48975;SDS011;34791;52.752;8.346;2023-04-12T05:22:22;5.23;;;1.80;;
48975;SDS011;34791;52.752;8.346;2023-04-12T05:24:48;7.60;;;1.97;;
48975;SDS011;34791;52.752;8.346;2023-04-12T05:27:14;8.13;;;2.03;;
48975;SDS011;34791;52.752;8.346;2023-04-12T05:29:41;7.20;;;2.00;;
48975;SDS011;34791;52.752;8.346;2023-04-12T05:32:07;10.10;;;2.17;;
48975;SDS011;34791;52.752;8.346;2023-04-12T05:34:33;8.10;;;1.90;;
48975;SDS011;34791;52.752;8.346;2023-04-12T05:36:58;7.87;;;1.63;;
48975;SDS011;34791;52.752;8.346;2023-04-12T05:39:25;7.23;;;1.50;;
48975;SDS011;34791;52.752;8.346;2023-04-12T05:41:51;7.53;;;2.10;;
48975;SDS011;34791;52.752;8.346;2023-04-12T05:44:17;6.07;;;1.97;;
48975;SDS011;34791;52.752;8.346;2023-04-12T05:46:42;5.43;;;1.73;;
48975;SDS011;34791;52.752;8.346;2023-04-12T05:49:08;5.37;;;1.70;;
48975;SDS011;34791;52.752;8.346;2023-04-12T05:51:34;4.10;;;1.47;;
48975;SDS011;34791;52.752;8.346;2023-04-12T05:53:59;8.50;;;1.93;;
48975;SDS011;34791;52.752;8.346;2023-04-12T05:56:25;5.77;;;1.63;;
48975;SDS011;34791;52.752;8.346;2023-04-12T05:58:51;5.43;;;1.67;;
48975;SDS011;34791;52.752;8.346;2023-04-12T06:01:16;6.07;;;1.90;;
48975;SDS011;34791;52.752;8.346;2023-04-12T06:03:43;8.77;;;2.37;;
48975;SDS011;34791;52.752;8.346;2023-04-12T06:06:10;6.67;;;1.87;;
48975;SDS011;34791;52.752;8.346;2023-04-12T06:08:35;4.80;;;1.30;;
48975;SDS011;34791;52.752;8.346;2023-04-12T06:11:02;5.53;;;1.57;;
48975;SDS011;34791;52.752;8.346;2023-04-12T06:13:32;8.80;;;2.03;;
48975;SDS011;34791;52.752;8.346;2023-04-12T06:15:57;7.33;;;1.90;;
48975;SDS011;34791;52.752;8.346;2023-04-12T06:18:23;5.27;;;1.70;;
48975;SDS011;34791;52.752;8.346;2023-04-12T06:20:48;7.73;;;2.00;;
48975;SDS011;34791;52.752;8.346;2023-04-12T06:23:14;7.43;;;1.90;;
48975;SDS011;34791;52.752;8.346;2023-04-12T06:25:39;3.50;;;1.40;;
48975;SDS011;34791;52.752;8.346;2023-04-12T06:28:05;5.60;;;1.40;;
48975;SDS011;34791;52.752;8.346;2023-04-12T06:30:30;4.37;;;1.60;;
48975;SDS011;34791;52.752;8.346;2023-04-12T06:32:56;3.93;;;1.00;;
48975;SDS011;34791;52.752;8.346;2023-04-12T06:35:21;5.07;;;1.50;;
48975;SDS011;34791;52.752;8.346;2023-04-12T06:37:47;4.63;;;1.27;;
48975;SDS011;34791;52.752;8.346;2023-04-12T06:40:13;9.97;;;1.67;;
48975;SDS011;34791;52.752;8.346;2023-04-12T06:42:39;6.37;;;2.13;;
48975;SDS011;34791;52.752;8.346;2023-04-12T06:45:05;3.20;;;0.97;;
48975;SDS011;34791;52.752;8.346;2023-04-12T06:47:31;6.83;;;1.53;;
48975;SDS011;34791;52.752;8.346;2023-04-12T06:49:57;2.77;;;1.17;;
48975;SDS011;34791;52.752;8.346;2023-04-12T06:52:23;5.83;;;1.50;;
48975;SDS011;34791;52.752;8.346;2023-04-12T06:54:52;5.00;;;1.53;;
48975;SDS011;34791;52.752;8.346;2023-04-12T06:57:18;4.77;;;1.27;;
48975;SDS011;34791;52.752;8.346;2023-04-12T06:59:43;5.90;;;2.00;;
48975;SDS011;34791;52.752;8.346;2023-04-12T07:02:09;4.70;;;1.30;;
48975;SDS011;34791;52.752;8.346;2023-04-12T07:04:35;3.50;;;1.20;;
48975;SDS011;34791;52.752;8.346;2023-04-12T07:07:01;6.73;;;1.80;;
48975;SDS011;34791;52.752;8.346;2023-04-12T07:09:29;7.43;;;1.63;;
48975;SDS011;34791;52.752;8.346;2023-04-12T07:11:56;5.80;;;1.57;;
48975;SDS011;34791;52.752;8.346;2023-04-12T07:14:21;4.87;;;1.30;;
48975;SDS011;34791;52.752;8.346;2023-04-12T07:16:47;5.23;;;1.40;;
48975;SDS011;34791;52.752;8.346;2023-04-12T07:19:12;5.30;;;1.43;;
48975;SDS011;34791;52.752;8.346;2023-04-12T07:21:38;5.50;;;1.50;;
48975;SDS011;34791;52.752;8.346;2023-04-12T07:24:03;6.07;;;1.70;;
48975;SDS011;34791;52.752;8.346;2023-04-12T07:26:29;7.43;;;2.00;;
48975;SDS011;34791;52.752;8.346;2023-04-12T07:28:55;6.63;;;1.60;;
48975;SDS011;34791;52.752;8.346;2023-04-12T07:31:20;7.20;;;1.73;;
48975;SDS011;34791;52.752;8.346;2023-04-12T07:33:47;2.87;;;1.23;;
48975;SDS011;34791;52.752;8.346;2023-04-12T07:36:13;4.97;;;1.80;;
48975;SDS011;34791;52.752;8.346;2023-04-12T07:38:40;4.23;;;1.40;;
48975;SDS011;34791;52.752;8.346;2023-04-12T07:41:06;3.53;;;1.40;;
48975;SDS011;34791;52.752;8.346;2023-04-12T07:43:32;6.93;;;1.63;;
48975;SDS011;34791;52.752;8.346;2023-04-12T07:45:57;3.90;;;1.50;;
48975;SDS011;34791;52.752;8.346;2023-04-12T07:48:23;7.07;;;1.87;;
48975;SDS011;34791;52.752;8.346;2023-04-12T07:50:49;7.83;;;2.27;;
48975;SDS011;34791;52.752;8.346;2023-04-12T07:53:22;6.37;;;1.70;;
48975;SDS011;34791;52.752;8.346;2023-04-12T07:55:49;4.57;;;1.70;;
48975;SDS011;34791;52.752;8.346;2023-04-12T07:58:15;7.07;;;2.03;;
48975;SDS011;34791;52.752;8.346;2023-04-12T08:00:44;5.17;;;1.70;;
48975;SDS011;34791;52.752;8.346;2023-04-12T08:03:11;5.67;;;1.57;;
48975;SDS011;34791;52.752;8.346;2023-04-12T08:05:46;7.00;;;1.90;;
48975;SDS011;34791;52.752;8.346;2023-04-12T08:08:17;5.97;;;2.40;;
48975;SDS011;34791;52.752;8.346;2023-04-12T08:10:42;5.03;;;1.90;;
48975;SDS011;34791;52.752;8.346;2023-04-12T08:13:08;5.07;;;2.10;;
48975;SDS011;34791;52.752;8.346;2023-04-12T08:15:33;5.90;;;1.77;;
48975;SDS011;34791;52.752;8.346;2023-04-12T08:17:59;6.03;;;1.80;;
48975;SDS011;34791;52.752;8.346;2023-04-12T08:20:25;4.80;;;1.73;;
48975;SDS011;34791;52.752;8.346;2023-04-12T08:22:50;6.00;;;2.10;;
48975;SDS011;34791;52.752;8.346;2023-04-12T08:25:16;3.70;;;1.63;;
48975;SDS011;34791;52.752;8.346;2023-04-12T08:27:42;2.73;;;1.23;;
48975;SDS011;34791;52.752;8.346;2023-04-12T08:30:08;5.67;;;2.03;;
48975;SDS011;34791;52.752;8.346;2023-04-12T08:32:35;4.10;;;1.87;;
48975;SDS011;34791;52.752;8.346;2023-04-12T08:35:01;4.50;;;1.80;;
48975;SDS011;34791;52.752;8.346;2023-04-12T08:37:27;6.23;;;2.10;;
48975;SDS011;34791;52.752;8.346;2023-04-12T08:39:53;3.60;;;1.37;;
48975;SDS011;34791;52.752;8.346;2023-04-12T08:42:18;7.20;;;2.10;;
48975;SDS011;34791;52.752;8.346;2023-04-12T08:44:44;3.97;;;1.90;;
48975;SDS011;34791;52.752;8.346;2023-04-12T08:47:10;3.83;;;1.43;;
48975;SDS011;34791;52.752;8.346;2023-04-12T08:49:36;10.60;;;3.27;;
48975;SDS011;34791;52.752;8.346;2023-04-12T08:52:03;9.03;;;2.63;;
48975;SDS011;34791;52.752;8.346;2023-04-12T08:54:31;5.67;;;2.30;;
48975;SDS011;34791;52.752;8.346;2023-04-12T08:56:57;6.63;;;2.60;;
48975;SDS011;34791;52.752;8.346;2023-04-12T08:59:25;8.77;;;2.43;;
48975;SDS011;34791;52.752;8.346;2023-04-12T09:01:51;8.40;;;2.70;;
48975;SDS011;34791;52.752;8.346;2023-04-12T09:04:18;8.13;;;2.90;;
48975;SDS011;34791;52.752;8.346;2023-04-12T09:06:44;7.13;;;2.80;;
48975;SDS011;34791;52.752;8.346;2023-04-12T09:09:09;9.73;;;2.47;;
48975;SDS011;34791;52.752;8.346;2023-04-12T09:11:35;6.30;;;2.50;;
48975;SDS011;34791;52.752;8.346;2023-04-12T09:14:01;4.87;;;2.23;;
48975;SDS011;34791;52.752;8.346;2023-04-12T09:16:36;5.50;;;3.00;;
48975;SDS011;34791;52.752;8.346;2023-04-12T09:19:03;5.20;;;2.90;;
48975;SDS011;34791;52.752;8.346;2023-04-12T09:21:30;4.03;;;2.00;;
48975;SDS011;34791;52.752;8.346;2023-04-12T09:24:05;7.57;;;2.80;;
48975;SDS011;34791;52.752;8.346;2023-04-12T09:26:37;5.13;;;2.73;;
48975;SDS011;34791;52.752;8.346;2023-04-12T09:29:03;7.30;;;2.97;;
48975;SDS011;34791;52.752;8.346;2023-04-12T09:31:29;10.20;;;3.70;;
48975;SDS011;34791;52.752;8.346;2023-04-12T09:34:05;7.33;;;3.57;;
48975;SDS011;34791;52.752;8.346;2023-04-12T09:36:39;9.13;;;4.17;;
48975;SDS011;34791;52.752;8.346;2023-04-12T09:39:05;7.27;;;3.93;;
48975;SDS011;34791;52.752;8.346;2023-04-12T09:41:31;6.90;;;3.27;;
48975;SDS011;34791;52.752;8.346;2023-04-12T09:43:57;7.00;;;3.70;;
48975;SDS011;34791;52.752;8.346;2023-04-12T09:46:23;8.33;;;3.50;;
48975;SDS011;34791;52.752;8.346;2023-04-12T09:48:50;8.70;;;3.67;;
48975;SDS011;34791;52.752;8.346;2023-04-12T09:51:26;5.50;;;2.93;;
48975;SDS011;34791;52.752;8.346;2023-04-12T09:53:59;6.83;;;3.10;;
48975;SDS011;34791;52.752;8.346;2023-04-12T09:56:30;7.80;;;3.33;;
48975;SDS011;34791;52.752;8.346;2023-04-12T09:59:01;7.33;;;3.50;;
48975;SDS011;34791;52.752;8.346;2023-04-12T10:01:28;8.23;;;3.88;;
48975;SDS011;34791;52.752;8.346;2023-04-12T10:03:58;8.63;;;3.90;;
48975;SDS011;34791;52.752;8.346;2023-04-12T10:06:25;6.13;;;3.87;;
48975;SDS011;34791;52.752;8.346;2023-04-12T10:08:51;6.20;;;3.70;;
48975;SDS011;34791;52.752;8.346;2023-04-12T10:11:18;8.67;;;4.17;;
48975;SDS011;34791;52.752;8.346;2023-04-12T10:13:44;8.17;;;3.97;;
48975;SDS011;34791;52.752;8.346;2023-04-12T10:16:12;7.60;;;3.63;;
48975;SDS011;34791;52.752;8.346;2023-04-12T10:18:38;6.23;;;3.60;;
48975;SDS011;34791;52.752;8.346;2023-04-12T10:21:04;6.83;;;3.90;;
48975;SDS011;34791;52.752;8.346;2023-04-12T10:23:31;6.87;;;3.70;;
48975;SDS011;34791;52.752;8.346;2023-04-12T10:25:57;8.80;;;4.30;;
48975;SDS011;34791;52.752;8.346;2023-04-12T10:28:24;6.93;;;4.37;;
48975;SDS011;34791;52.752;8.346;2023-04-12T10:30:49;8.00;;;4.50;;
48975;SDS011;34791;52.752;8.346;2023-04-12T10:33:23;7.53;;;4.37;;
48975;SDS011;34791;52.752;8.346;2023-04-12T10:35:54;9.27;;;4.60;;
48975;SDS011;34791;52.752;8.346;2023-04-12T10:38:25;10.23;;;4.67;;
48975;SDS011;34791;52.752;8.346;2023-04-12T10:41:11;5.93;;;4.17;;
48975;SDS011;34791;52.752;8.346;2023-04-12T10:43:41;7.83;;;4.63;;
48975;SDS011;34791;52.752;8.346;2023-04-12T10:46:10;10.83;;;5.03;;
48975;SDS011;34791;52.752;8.346;2023-04-12T10:49:08;10.50;;;4.60;;
48975;SDS011;34791;52.752;8.346;2023-04-12T10:51:36;7.70;;;4.90;;
48975;SDS011;34791;52.752;8.346;2023-04-12T10:54:35;6.80;;;4.10;;
48975;SDS011;34791;52.752;8.346;2023-04-12T10:57:01;7.97;;;4.17;;
48975;SDS011;34791;52.752;8.346;2023-04-12T11:02:29;6.00;;;4.15;;
48975;SDS011;34791;52.752;8.346;2023-04-12T11:05:07;7.30;;;3.33;;
48975;SDS011;34791;52.752;8.346;2023-04-12T11:07:37;6.27;;;3.90;;
48975;SDS011;34791;52.752;8.346;2023-04-12T11:10:11;7.77;;;4.03;;
48975;SDS011;34791;52.752;8.346;2023-04-12T11:12:39;8.03;;;3.90;;
48975;SDS011;34791;52.752;8.346;2023-04-12T11:15:05;9.57;;;3.60;;
48975;SDS011;34791;52.752;8.346;2023-04-12T11:17:36;6.40;;;3.70;;
48975;SDS011;34791;52.752;8.346;2023-04-12T11:20:01;5.70;;;3.93;;
48975;SDS011;34791;52.752;8.346;2023-04-12T11:22:30;6.97;;;4.20;;
48975;SDS011;34791;52.752;8.346;2023-04-12T11:25:00;6.00;;;3.50;;
48975;SDS011;34791;52.752;8.346;2023-04-12T11:27:27;5.73;;;3.77;;
48975;SDS011;34791;52.752;8.346;2023-04-12T11:29:59;6.37;;;3.40;;
48975;SDS011;34791;52.752;8.346;2023-04-12T11:32:26;7.47;;;3.87;;
48975;SDS011;34791;52.752;8.346;2023-04-12T11:34:54;7.63;;;4.30;;
48975;SDS011;34791;52.752;8.346;2023-04-12T11:37:22;6.60;;;4.20;;
48975;SDS011;34791;52.752;8.346;2023-04-12T11:39:51;6.90;;;4.23;;
48975;SDS011;34791;52.752;8.346;2023-04-12T11:42:19;9.50;;;4.07;;
48975;SDS011;34791;52.752;8.346;2023-04-12T11:44:49;5.97;;;4.18;;
48975;SDS011;34791;52.752;8.346;2023-04-12T11:47:16;8.07;;;3.87;;
48975;SDS011;34791;52.752;8.346;2023-04-12T11:49:47;6.30;;;3.87;;
48975;SDS011;34791;52.752;8.346;2023-04-12T11:52:14;4.87;;;3.47;;
48975;SDS011;34791;52.752;8.346;2023-04-12T11:54:44;6.03;;;3.60;;
48975;SDS011;34791;52.752;8.346;2023-04-12T11:57:11;4.87;;;3.17;;
48975;SDS011;34791;52.752;8.346;2023-04-12T11:59:47;5.10;;;3.37;;
48975;SDS011;34791;52.752;8.346;2023-04-12T12:02:13;4.70;;;3.10;;
48975;SDS011;34791;52.752;8.346;2023-04-12T12:04:41;5.60;;;2.83;;
48975;SDS011;34791;52.752;8.346;2023-04-12T12:07:10;4.40;;;2.83;;
48975;SDS011;34791;52.752;8.346;2023-04-12T12:09:40;3.97;;;2.60;;
48975;SDS011;34791;52.752;8.346;2023-04-12T12:12:08;4.70;;;2.77;;
48975;SDS011;34791;52.752;8.346;2023-04-12T12:14:35;5.10;;;2.63;;
48975;SDS011;34791;52.752;8.346;2023-04-12T12:17:01;3.83;;;2.33;;
48975;SDS011;34791;52.752;8.346;2023-04-12T12:19:37;4.10;;;2.43;;
48975;SDS011;34791;52.752;8.346;2023-04-12T12:22:11;3.80;;;2.10;;
48975;SDS011;34791;52.752;8.346;2023-04-12T12:24:51;3.63;;;2.33;;
48975;SDS011;34791;52.752;8.346;2023-04-12T12:27:37;3.87;;;2.13;;
48975;SDS011;34791;52.752;8.346;2023-04-12T12:30:06;3.20;;;2.10;;
48975;SDS011;34791;52.752;8.346;2023-04-12T12:32:33;4.10;;;2.20;;
48975;SDS011;34791;52.752;8.346;2023-04-12T12:35:01;3.73;;;2.40;;
48975;SDS011;34791;52.752;8.346;2023-04-12T12:37:35;4.07;;;2.60;;
48975;SDS011;34791;52.752;8.346;2023-04-12T12:40:05;3.40;;;2.30;;
48975;SDS011;34791;52.752;8.346;2023-04-12T12:42:44;3.40;;;2.20;;
48975;SDS011;34791;52.752;8.346;2023-04-12T12:45:14;4.73;;;2.60;;
48975;SDS011;34791;52.752;8.346;2023-04-12T12:48:00;4.83;;;2.53;;
48975;SDS011;34791;52.752;8.346;2023-04-12T12:50:32;3.90;;;2.60;;
48975;SDS011;34791;52.752;8.346;2023-04-12T12:52:59;5.40;;;2.85;;
48975;SDS011;34791;52.752;8.346;2023-04-12T12:55:25;4.13;;;2.90;;
48975;SDS011;34791;52.752;8.346;2023-04-12T12:57:53;5.10;;;2.43;;
48975;SDS011;34791;52.752;8.346;2023-04-12T13:00:21;5.00;;;3.00;;
48975;SDS011;34791;52.752;8.346;2023-04-12T13:02:48;5.60;;;2.60;;
48975;SDS011;34791;52.752;8.346;2023-04-12T13:05:15;4.00;;;2.60;;
48975;SDS011;34791;52.752;8.346;2023-04-12T13:07:40;4.30;;;2.20;;
48975;SDS011;34791;52.752;8.346;2023-04-12T13:10:07;4.57;;;2.30;;
48975;SDS011;34791;52.752;8.346;2023-04-12T13:12:33;3.50;;;2.10;;
48975;SDS011;34791;52.752;8.346;2023-04-12T13:14:59;3.30;;;2.17;;
48975;SDS011;34791;52.752;8.346;2023-04-12T13:17:25;3.20;;;2.00;;
48975;SDS011;34791;52.752;8.346;2023-04-12T13:19:52;4.00;;;2.40;;
48975;SDS011;34791;52.752;8.346;2023-04-12T13:22:21;4.00;;;2.40;;
48975;SDS011;34791;52.752;8.346;2023-04-12T13:24:47;3.67;;;2.33;;
48975;SDS011;34791;52.752;8.346;2023-04-12T13:27:15;5.13;;;3.13;;
48975;SDS011;34791;52.752;8.346;2023-04-12T13:29:41;6.83;;;3.33;;
48975;SDS011;34791;52.752;8.346;2023-04-12T13:32:07;7.03;;;3.30;;
48975;SDS011;34791;52.752;8.346;2023-04-12T13:34:33;5.37;;;2.97;;
48975;SDS011;34791;52.752;8.346;2023-04-12T13:37:01;4.10;;;2.57;;
48975;SDS011;34791;52.752;8.346;2023-04-12T13:39:27;5.07;;;3.20;;
48975;SDS011;34791;52.752;8.346;2023-04-12T13:41:53;5.07;;;2.90;;
48975;SDS011;34791;52.752;8.346;2023-04-12T13:44:18;4.53;;;2.80;;
48975;SDS011;34791;52.752;8.346;2023-04-12T13:46:44;6.90;;;3.60;;
48975;SDS011;34791;52.752;8.346;2023-04-12T13:49:09;5.23;;;2.93;;
48975;SDS011;34791;52.752;8.346;2023-04-12T13:51:35;4.60;;;2.73;;
48975;SDS011;34791;52.752;8.346;2023-04-12T13:54:01;4.20;;;2.27;;
48975;SDS011;34791;52.752;8.346;2023-04-12T13:56:30;3.60;;;2.30;;
48975;SDS011;34791;52.752;8.346;2023-04-12T13:58:55;3.20;;;2.10;;
48975;SDS011;34791;52.752;8.346;2023-04-12T14:01:23;3.30;;;1.93;;
48975;SDS011;34791;52.752;8.346;2023-04-12T14:03:49;3.70;;;2.13;;
48975;SDS011;34791;52.752;8.346;2023-04-12T14:06:15;4.50;;;2.40;;
48975;SDS011;34791;52.752;8.346;2023-04-12T14:08:40;3.63;;;2.20;;
48975;SDS011;34791;52.752;8.346;2023-04-12T14:11:06;3.95;;;2.25;;
48975;SDS011;34791;52.752;8.346;2023-04-12T14:13:31;5.68;;;2.60;;
48975;SDS011;34791;52.752;8.346;2023-04-12T14:15:59;3.67;;;2.30;;
48975;SDS011;34791;52.752;8.346;2023-04-12T14:18:25;3.75;;;2.50;;
48975;SDS011;34791;52.752;8.346;2023-04-12T14:20:50;3.58;;;2.53;;
48975;SDS011;34791;52.752;8.346;2023-04-12T14:23:21;3.50;;;2.40;;
48975;SDS011;34791;52.752;8.346;2023-04-12T14:25:50;5.13;;;2.75;;
48975;SDS011;34791;52.752;8.346;2023-04-12T14:28:19;6.05;;;2.90;;
48975;SDS011;34791;52.752;8.346;2023-04-12T14:30:52;5.25;;;2.72;;
48975;SDS011;34791;52.752;8.346;2023-04-12T14:35:43;4.75;;;2.70;;
48975;SDS011;34791;52.752;8.346;2023-04-12T14:38:08;4.80;;;2.85;;
48975;SDS011;34791;52.752;8.346;2023-04-12T14:40:37;4.50;;;2.90;;
48975;SDS011;34791;52.752;8.346;2023-04-12T14:43:06;6.05;;;3.50;;
48975;SDS011;34791;52.752;8.346;2023-04-12T14:45:31;5.53;;;3.33;;
48975;SDS011;34791;52.752;8.346;2023-04-12T14:47:57;6.38;;;3.10;;
48975;SDS011;34791;52.752;8.346;2023-04-12T14:50:22;5.90;;;3.00;;
48975;SDS011;34791;52.752;8.346;2023-04-12T14:52:48;4.47;;;3.00;;
48975;SDS011;34791;52.752;8.346;2023-04-12T14:55:17;4.10;;;2.83;;
48975;SDS011;34791;52.752;8.346;2023-04-12T14:57:43;4.20;;;3.00;;
48975;SDS011;34791;52.752;8.346;2023-04-12T15:00:11;5.75;;;3.30;;
48975;SDS011;34791;52.752;8.346;2023-04-12T15:02:39;6.07;;;3.40;;
48975;SDS011;34791;52.752;8.346;2023-04-12T15:05:08;4.85;;;2.90;;
48975;SDS011;34791;52.752;8.346;2023-04-12T15:07:34;4.60;;;3.25;;